Pembroke, Virginia
Current Conditions -  °F | °C
As of 8:15 PM on Saturday 25 Oct 2014 (Local Time) from KPSK Reporting Station
Clear Clear  
Wind Chill: 59°   Ceiling: Unl
Heat Index: 59°   Visibility: 10mi
Dew Point: 50°   Wind: 6mph
Humidity: 71%   Direction: 220°SW
Pressure: 29.96"   Gusts: NA
Location:  37.32°N, 80.64°W
Report Text: KPSK 260015Z AUTO 22005KT 10SM CLR 15/10 A2996 RMK AO2 T01520099
Loading
Personal Weather Stations






























Interactive Weather Map
Tropical Storm Tracking
New forecast layout! Learn more

10-Day Weather Forecast

Advertisements
Track Severe Weather on mobile